EW4196 Weather Reports


Display with metric or nautical units.
time (UTC)temp
F
wind
direction
speed
MPH
gust
MPH
rain 1hr
in
rain 24hr
in
rain mn
in
humidity
%
barometer
mb
20200408213104 95 242 1.0 6.0 0.00 0.00 0.00 19 1003.5
20200408211623 96 285 0.0 5.0 0.00 0.00 0.00 23 1003.6
20200408210102 95 271 0.0 2.0 0.00 0.00 0.00 26 1003.7
20200408204536 94 181 0.0 3.0 0.00 0.00 0.00 28 1003.8
20200408203049 94 148 0.0 3.0 0.00 0.00 0.00 28 1003.9
20200408201537 93 115 0.0 4.0 0.00 0.00 0.00 29 1004.2
20200408200047 93 16 0.0 4.0 0.00 0.00 0.00 31 1004.4
20200408194531 93 120 0.0 4.0 0.00 0.00 0.00 31 1004.6
20200408193020 93 133 0.0 1.0 0.00 0.00 0.00 30 1004.7
20200408191511 93 290 0.0 2.0 0.00 0.00 0.00 30 1004.9
20200408190018 91 256 0.0 2.0 0.00 0.00 0.00 32 1005.1
20200408184505 91 129 0.0 1.0 0.00 0.00 0.00 36 1005.2
20200408183134 90 87 0.0 3.0 0.00 0.00 0.00 38 1005.4
20200408181705 90 141 0.0 3.0 0.00 0.00 0.00 38 1005.5
20200408180213 89 240 0.0 1.0 0.00 0.00 0.00 39 1005.5
20200408174606 87 267 0.0 2.0 0.00 0.00 0.00 42 1005.8
20200408173227 86 156 1.0 3.0 0.00 0.00 0.00 44 1005.9
20200408171552 84 255 0.0 5.0 0.00 0.00 0.00 46 1006.0
20200408170150 83 91 0.0 6.0 0.00 0.00 0.00 48 1006.3
20200408164623 83 236 0.0 4.0 0.00 0.00 0.00 50 1006.5
20200408163207 81 120 0.0 2.0 0.00 0.00 0.00 54 1006.7
20200408161700 81 319 0.0 3.0 0.00 0.00 0.00 53 1006.8
20200408160129 80 132 0.0 2.0 0.00 0.00 0.00 56 1006.8
20200408154621 78 276 0.0 3.0 0.00 0.00 0.00 59 1006.7
20200408153111 77 147 0.0 2.0 0.00 0.00 0.00 61 1006.7
20200408151532 76 111 0.0 2.0 0.00 0.00 0.00 63 1006.6
20200408150016 74 95 0.0 3.0 0.00 0.00 0.00 68 1006.4
20200408144514 72 109 0.0 1.0 0.00 0.00 0.00 74 1006.3
20200408143021 70 129 0.0 1.0 0.00 0.00 0.00 85 1006.3
20200408141504 67 131 0.0 0.0 0.00 0.00 0.00 94 1006.3
20200408140148 64 130 0.0 0.0 0.00 0.00 0.00 96 1006.4
20200408134639 62 130 0.0 0.0 0.00 0.00 0.00 97 1006.4
20200408133131 60 158 0.0 0.0 0.00 0.00 0.00 97 1006.5
20200408131658 58 158 0.0 0.0 0.00 0.00 0.00 96 1006.6
20200408130250 57 158 0.0 0.0 0.00 0.00 0.00 96 1006.2
20200408124617 57 158 0.0 0.0 0.00 0.00 0.00 96 1006.0
20200408123129 56 158 0.0 0.0 0.00 0.00 0.00 95 1006.0
20200408121604 56 158 0.0 0.0 0.00 0.00 0.00 95 1005.9
20200408120318 56 158 0.0 0.0 0.00 0.00 0.00 94 1005.9
20200408114702 57 159 0.0 0.0 0.00 0.00 0.00 95 1005.7
20200408113130 57 158 0.0 0.0 0.00 0.00 0.00 94 1005.7
20200408111716 58 158 0.0 0.0 0.00 0.00 0.00 94 1005.8
20200408110118 58 158 0.0 0.0 0.00 0.00 0.00 94 1005.7
20200408104704 58 159 0.0 0.0 0.00 0.00 0.00 94 1005.8
20200408103210 58 158 0.0 0.0 0.00 0.00 0.00 94 1005.9
20200408101634 58 158 0.0 0.0 0.00 0.00 0.00 94 1005.8
20200408100138 58 159 0.0 0.0 0.00 0.00 0.00 93 1005.8
20200408094639 58 159 0.0 0.0 0.00 0.00 0.00 94 1005.7
20200408093305 57 158 0.0 0.0 0.00 0.00 0.00 93 1005.9
20200408090144 58 159 0.0 0.0 0.00 0.00 0.00 92 1005.9
20200408084552 58 158 0.0 0.0 0.00 0.00 0.00 92 1006.0
20200408083148 58 158 0.0 0.0 0.00 0.00 0.00 91 1006.1
20200408080047 58 158 0.0 0.0 0.00 0.00 0.00 90 1006.6
20200408074529 59 158 0.0 0.0 0.00 0.00 0.00 90 1006.7
20200408073120 59 158 0.0 0.0 0.00 0.00 0.00 88 1006.8
20200408071609 59 159 0.0 0.0 0.00 0.00 0.00 88 1006.9
20200408070036 59 158 0.0 0.0 0.00 0.00 0.00 86 1007.0
20200408064541 60 159 0.0 0.0 0.00 0.00 0.00 84 1007.2
20200408063042 61 158 0.0 0.0 0.00 0.00 0.00 83 1007.3
20200408061514 61 159 0.0 0.0 0.00 0.00 0.00 82 1007.5
20200408060010 62 158 0.0 0.0 0.00 0.00 0.00 80 1007.5
20200408054509 62 158 0.0 0.0 0.00 0.00 0.00 81 1007.5
20200408053014 63 158 0.0 0.0 0.00 0.00 0.00 79 1007.5
20200408051506 64 158 0.0 0.0 0.00 0.00 0.00 80 1007.4
20200408050000 63 158 0.0 0.0 0.00 0.00 0.00 79 1007.3
20200408044715 64 158 0.0 0.0 0.00 0.00 0.00 79 1007.4
20200408043138 64 158 0.0 0.0 0.00 0.00 0.00 78 1007.4
20200408041716 65 158 0.0 0.0 0.00 0.00 0.00 77 1007.4
20200408040204 66 158 0.0 0.0 0.00 0.00 0.00 75 1007.4
20200408034701 67 158 0.0 0.0 0.00 0.00 0.00 73 1007.6
20200408033228 68 159 0.0 0.0 0.00 0.00 0.00 73 1007.6
20200408031744 68 158 0.0 0.0 0.00 0.00 0.00 73 1007.5
20200408030205 69 158 0.0 0.0 0.00 0.00 0.00 70 1007.2
20200408024622 71 158 0.0 0.0 0.00 0.00 0.00 67 1007.0
20200408023216 71 158 0.0 0.0 0.00 0.00 0.00 67 1006.9
20200408021553 72 158 0.0 0.0 0.00 0.00 0.00 63 1006.7
20200408020153 73 158 0.0 0.0 0.00 0.00 0.00 59 1006.4
20200408014708 75 158 0.0 0.0 0.00 0.00 0.00 55 1006.2
20200408013116 77 158 0.0 0.0 0.00 0.00 0.00 52 1006.0
20200408011822 79 158 0.0 0.0 0.00 0.00 0.00 49 1005.9
20200408010101 80 163 0.0 2.0 0.00 0.00 0.00 47 1005.8
20200408004715 82 255 0.0 0.0 0.00 0.00 0.00 46 1005.6
20200408003118 84 255 0.0 1.0 0.00 0.00 0.00 43 1005.6
20200408001716 86 249 0.0 1.0 0.00 0.00 0.00 41 1005.5
20200408000206 88 254 0.0 1.0 0.00 0.00 0.00 38 1005.6
20200407234555 89 270 0.0 0.0 0.00 0.00 0.00 38 1005.7
20200407233114 90 199 0.0 6.0 0.00 0.00 0.00 37 1005.7
20200407231624 91 69 0.0 5.0 0.00 0.00 0.00 33 1005.4
20200407230158 90 203 0.0 7.0 0.00 0.00 0.00 32 1005.4
20200407224608 91 184 0.0 5.0 0.00 0.00 0.00 34 1005.2
20200407223101 91 233 0.0 7.0 0.00 0.00 0.00 35 1005.2
20200407221626 90 229 0.0 4.0 0.00 0.00 0.00 38 1005.3
20200407220048 90 188 0.0 3.0 0.00 0.00 0.00 40 1005.6
20200407214544 89 170 1.0 5.0 0.00 0.00 0.00 42 1005.6